Terminal Aerodrome Forecast
Issued by NWS

Current Version | Previous Version | Text Only | Print | Product List | Glossary On
Versions: 1 2 3 4 5 6 7 8 9 10 11 12 13 14 15 16
724
FTUS42 KMLB 181902 AAA
TAFFPR
TAF AMD
KFPR 181902Z 1819/1918 11010KT P6SM VCSH FEW035
     FM182100 12008KT P6SM SCT030 SCT250
     FM190200 VRB03KT P6SM FEW030 SCT250
     FM191500 13007KT P6SM SCT030=

USA.gov is the U.S. government's official web portal to all federal, state and local government web resources and services.